sensor_id;sensor_type;location;lat;lon;timestamp;P1;durP1;ratioP1;P2;durP2;ratioP2
30458;SDS011;17254;50.976;7.034;2022-08-27T00:00:10;11.48;;;7.40;;
30458;SDS011;17254;50.976;7.034;2022-08-27T00:00:45;15.88;;;6.68;;
30458;SDS011;17254;50.976;7.034;2022-08-27T00:01:16;10.20;;;6.70;;
30458;SDS011;17254;50.976;7.034;2022-08-27T00:01:47;12.80;;;6.72;;
30458;SDS011;17254;50.976;7.034;2022-08-27T00:02:19;12.73;;;7.88;;
30458;SDS011;17254;50.976;7.034;2022-08-27T00:02:50;13.80;;;7.25;;
30458;SDS011;17254;50.976;7.034;2022-08-27T00:03:21;13.55;;;7.30;;
30458;SDS011;17254;50.976;7.034;2022-08-27T00:03:53;11.75;;;7.80;;
30458;SDS011;17254;50.976;7.034;2022-08-27T00:04:24;14.40;;;6.82;;
30458;SDS011;17254;50.976;7.034;2022-08-27T00:04:57;10.82;;;7.93;;
30458;SDS011;17254;50.976;7.034;2022-08-27T00:05:29;19.77;;;6.95;;
30458;SDS011;17254;50.976;7.034;2022-08-27T00:06:00;12.63;;;7.45;;
30458;SDS011;17254;50.976;7.034;2022-08-27T00:06:31;12.63;;;8.07;;
30458;SDS011;17254;50.976;7.034;2022-08-27T00:07:05;10.88;;;7.78;;
30458;SDS011;17254;50.976;7.034;2022-08-27T00:07:37;9.68;;;7.82;;
30458;SDS011;17254;50.976;7.034;2022-08-27T00:08:08;11.82;;;8.15;;
30458;SDS011;17254;50.976;7.034;2022-08-27T00:08:42;12.73;;;8.55;;
30458;SDS011;17254;50.976;7.034;2022-08-27T00:09:15;10.40;;;8.23;;
30458;SDS011;17254;50.976;7.034;2022-08-27T00:09:46;9.77;;;8.20;;
30458;SDS011;17254;50.976;7.034;2022-08-27T00:10:19;14.57;;;8.75;;
30458;SDS011;17254;50.976;7.034;2022-08-27T00:10:54;12.18;;;7.78;;
30458;SDS011;17254;50.976;7.034;2022-08-27T00:11:25;13.98;;;8.18;;
30458;SDS011;17254;50.976;7.034;2022-08-27T00:11:57;11.25;;;7.75;;
30458;SDS011;17254;50.976;7.034;2022-08-27T00:12:28;11.50;;;8.38;;
30458;SDS011;17254;50.976;7.034;2022-08-27T00:12:59;17.65;;;10.00;;
30458;SDS011;17254;50.976;7.034;2022-08-27T00:13:31;16.88;;;10.02;;
30458;SDS011;17254;50.976;7.034;2022-08-27T00:14:02;12.40;;;9.80;;
30458;SDS011;17254;50.976;7.034;2022-08-27T00:14:34;13.27;;;9.15;;
30458;SDS011;17254;50.976;7.034;2022-08-27T00:15:07;14.43;;;9.20;;
30458;SDS011;17254;50.976;7.034;2022-08-27T00:15:39;15.38;;;9.38;;
30458;SDS011;17254;50.976;7.034;2022-08-27T00:16:10;15.43;;;10.45;;
30458;SDS011;17254;50.976;7.034;2022-08-27T00:16:44;14.10;;;9.88;;
30458;SDS011;17254;50.976;7.034;2022-08-27T00:17:15;14.02;;;9.57;;
30458;SDS011;17254;50.976;7.034;2022-08-27T00:17:46;16.75;;;10.07;;
30458;SDS011;17254;50.976;7.034;2022-08-27T00:18:18;13.90;;;10.13;;
30458;SDS011;17254;50.976;7.034;2022-08-27T00:18:50;11.20;;;9.07;;
30458;SDS011;17254;50.976;7.034;2022-08-27T00:19:23;11.00;;;8.70;;
30458;SDS011;17254;50.976;7.034;2022-08-27T00:19:54;23.67;;;8.65;;
30458;SDS011;17254;50.976;7.034;2022-08-27T00:20:27;15.45;;;8.43;;
30458;SDS011;17254;50.976;7.034;2022-08-27T00:20:58;12.07;;;8.10;;
30458;SDS011;17254;50.976;7.034;2022-08-27T00:21:29;11.35;;;8.10;;
30458;SDS011;17254;50.976;7.034;2022-08-27T00:22:02;11.45;;;8.20;;
30458;SDS011;17254;50.976;7.034;2022-08-27T00:22:34;17.77;;;9.43;;
30458;SDS011;17254;50.976;7.034;2022-08-27T00:23:05;8.60;;;7.50;;
30458;SDS011;17254;50.976;7.034;2022-08-27T00:23:37;22.48;;;10.05;;
30458;SDS011;17254;50.976;7.034;2022-08-27T00:24:09;13.30;;;8.40;;
30458;SDS011;17254;50.976;7.034;2022-08-27T00:24:41;11.43;;;7.85;;
30458;SDS011;17254;50.976;7.034;2022-08-27T00:25:13;11.45;;;8.75;;
30458;SDS011;17254;50.976;7.034;2022-08-27T00:25:44;10.77;;;8.75;;
30458;SDS011;17254;50.976;7.034;2022-08-27T00:26:15;15.35;;;9.02;;
30458;SDS011;17254;50.976;7.034;2022-08-27T00:26:47;10.40;;;7.95;;
30458;SDS011;17254;50.976;7.034;2022-08-27T00:27:19;21.33;;;8.93;;
30458;SDS011;17254;50.976;7.034;2022-08-27T00:27:50;15.75;;;8.43;;
30458;SDS011;17254;50.976;7.034;2022-08-27T00:28:22;12.63;;;8.57;;
30458;SDS011;17254;50.976;7.034;2022-08-27T00:28:55;11.00;;;8.70;;
30458;SDS011;17254;50.976;7.034;2022-08-27T00:29:26;13.82;;;9.00;;
30458;SDS011;17254;50.976;7.034;2022-08-27T00:29:58;11.57;;;8.70;;
30458;SDS011;17254;50.976;7.034;2022-08-27T00:30:29;13.43;;;8.52;;
30458;SDS011;17254;50.976;7.034;2022-08-27T00:31:00;11.20;;;8.32;;
30458;SDS011;17254;50.976;7.034;2022-08-27T00:31:31;16.50;;;8.88;;
30458;SDS011;17254;50.976;7.034;2022-08-27T00:32:03;15.20;;;9.60;;
30458;SDS011;17254;50.976;7.034;2022-08-27T00:32:34;10.55;;;8.65;;
30458;SDS011;17254;50.976;7.034;2022-08-27T00:33:05;14.25;;;9.18;;
30458;SDS011;17254;50.976;7.034;2022-08-27T00:33:38;19.15;;;9.82;;
30458;SDS011;17254;50.976;7.034;2022-08-27T00:34:09;12.20;;;8.90;;
30458;SDS011;17254;50.976;7.034;2022-08-27T00:34:40;17.60;;;11.13;;
30458;SDS011;17254;50.976;7.034;2022-08-27T00:35:12;14.48;;;9.93;;
30458;SDS011;17254;50.976;7.034;2022-08-27T00:35:46;12.70;;;9.55;;
30458;SDS011;17254;50.976;7.034;2022-08-27T00:36:17;14.35;;;8.63;;
30458;SDS011;17254;50.976;7.034;2022-08-27T00:36:49;12.38;;;9.60;;
30458;SDS011;17254;50.976;7.034;2022-08-27T00:37:21;13.48;;;8.02;;
30458;SDS011;17254;50.976;7.034;2022-08-27T00:37:52;15.10;;;9.40;;
30458;SDS011;17254;50.976;7.034;2022-08-27T00:38:24;15.27;;;10.27;;
30458;SDS011;17254;50.976;7.034;2022-08-27T00:38:55;17.20;;;9.32;;
30458;SDS011;17254;50.976;7.034;2022-08-27T00:39:26;13.43;;;9.27;;
30458;SDS011;17254;50.976;7.034;2022-08-27T00:39:58;12.52;;;9.55;;
30458;SDS011;17254;50.976;7.034;2022-08-27T00:40:30;19.13;;;8.65;;
30458;SDS011;17254;50.976;7.034;2022-08-27T00:41:02;15.00;;;10.23;;
30458;SDS011;17254;50.976;7.034;2022-08-27T00:41:36;13.65;;;10.18;;
30458;SDS011;17254;50.976;7.034;2022-08-27T00:42:07;10.55;;;9.10;;
30458;SDS011;17254;50.976;7.034;2022-08-27T00:42:38;14.20;;;9.98;;
30458;SDS011;17254;50.976;7.034;2022-08-27T00:43:11;17.85;;;10.98;;
30458;SDS011;17254;50.976;7.034;2022-08-27T00:43:44;14.85;;;9.52;;
30458;SDS011;17254;50.976;7.034;2022-08-27T00:44:16;11.90;;;9.02;;
30458;SDS011;17254;50.976;7.034;2022-08-27T00:44:49;13.43;;;10.13;;
30458;SDS011;17254;50.976;7.034;2022-08-27T00:45:21;14.20;;;10.23;;
30458;SDS011;17254;50.976;7.034;2022-08-27T00:45:54;15.43;;;10.15;;
30458;SDS011;17254;50.976;7.034;2022-08-27T00:46:32;16.58;;;9.65;;
30458;SDS011;17254;50.976;7.034;2022-08-27T00:47:11;17.65;;;10.88;;
30458;SDS011;17254;50.976;7.034;2022-08-27T00:47:47;12.32;;;9.35;;
30458;SDS011;17254;50.976;7.034;2022-08-27T00:48:25;15.85;;;9.85;;
30458;SDS011;17254;50.976;7.034;2022-08-27T00:49:00;15.40;;;10.38;;
30458;SDS011;17254;50.976;7.034;2022-08-27T00:49:35;12.82;;;9.60;;
30458;SDS011;17254;50.976;7.034;2022-08-27T00:50:13;15.73;;;9.73;;
30458;SDS011;17254;50.976;7.034;2022-08-27T00:50:50;16.45;;;10.07;;
30458;SDS011;17254;50.976;7.034;2022-08-27T00:51:23;13.43;;;9.25;;
30458;SDS011;17254;50.976;7.034;2022-08-27T00:51:57;14.20;;;10.27;;
30458;SDS011;17254;50.976;7.034;2022-08-27T00:52:32;15.88;;;10.40;;
30458;SDS011;17254;50.976;7.034;2022-08-27T00:53:06;13.70;;;11.25;;
30458;SDS011;17254;50.976;7.034;2022-08-27T00:53:40;12.20;;;9.82;;
30458;SDS011;17254;50.976;7.034;2022-08-27T00:54:12;12.25;;;9.38;;
30458;SDS011;17254;50.976;7.034;2022-08-27T00:54:43;11.82;;;9.13;;
30458;SDS011;17254;50.976;7.034;2022-08-27T00:55:17;15.50;;;9.45;;
30458;SDS011;17254;50.976;7.034;2022-08-27T00:55:51;13.88;;;8.55;;
30458;SDS011;17254;50.976;7.034;2022-08-27T00:56:26;15.02;;;9.23;;
30458;SDS011;17254;50.976;7.034;2022-08-27T00:57:02;12.10;;;8.90;;
30458;SDS011;17254;50.976;7.034;2022-08-27T00:57:34;13.25;;;8.68;;
30458;SDS011;17254;50.976;7.034;2022-08-27T00:58:08;13.35;;;7.93;;
30458;SDS011;17254;50.976;7.034;2022-08-27T00:58:45;13.73;;;8.98;;
30458;SDS011;17254;50.976;7.034;2022-08-27T00:59:20;12.80;;;8.55;;
30458;SDS011;17254;50.976;7.034;2022-08-27T00:59:53;13.35;;;8.85;;
30458;SDS011;17254;50.976;7.034;2022-08-27T01:00:26;13.77;;;9.10;;
30458;SDS011;17254;50.976;7.034;2022-08-27T01:00:57;16.42;;;9.80;;
30458;SDS011;17254;50.976;7.034;2022-08-27T01:01:29;10.82;;;9.27;;
30458;SDS011;17254;50.976;7.034;2022-08-27T01:02:03;14.90;;;9.70;;
30458;SDS011;17254;50.976;7.034;2022-08-27T01:02:49;13.93;;;9.13;;
30458;SDS011;17254;50.976;7.034;2022-08-27T01:03:21;12.35;;;8.82;;
30458;SDS011;17254;50.976;7.034;2022-08-27T01:03:56;14.00;;;9.63;;
30458;SDS011;17254;50.976;7.034;2022-08-27T01:04:30;19.85;;;9.27;;
30458;SDS011;17254;50.976;7.034;2022-08-27T01:05:04;15.85;;;9.50;;
30458;SDS011;17254;50.976;7.034;2022-08-27T01:05:38;12.65;;;10.25;;
30458;SDS011;17254;50.976;7.034;2022-08-27T01:06:12;13.82;;;10.05;;
30458;SDS011;17254;50.976;7.034;2022-08-27T01:06:44;17.10;;;10.52;;
30458;SDS011;17254;50.976;7.034;2022-08-27T01:07:16;13.82;;;10.25;;
30458;SDS011;17254;50.976;7.034;2022-08-27T01:07:49;15.55;;;11.07;;
30458;SDS011;17254;50.976;7.034;2022-08-27T01:08:25;13.20;;;11.00;;
30458;SDS011;17254;50.976;7.034;2022-08-27T01:09:02;15.68;;;11.73;;
30458;SDS011;17254;50.976;7.034;2022-08-27T01:09:37;22.88;;;11.98;;
30458;SDS011;17254;50.976;7.034;2022-08-27T01:10:11;17.25;;;11.30;;
30458;SDS011;17254;50.976;7.034;2022-08-27T01:10:45;18.35;;;11.75;;
30458;SDS011;17254;50.976;7.034;2022-08-27T01:11:17;15.07;;;11.25;;
30458;SDS011;17254;50.976;7.034;2022-08-27T01:11:50;18.85;;;11.65;;
30458;SDS011;17254;50.976;7.034;2022-08-27T01:12:21;15.02;;;11.10;;
30458;SDS011;17254;50.976;7.034;2022-08-27T01:12:53;17.83;;;11.15;;
30458;SDS011;17254;50.976;7.034;2022-08-27T01:13:26;17.60;;;10.20;;
30458;SDS011;17254;50.976;7.034;2022-08-27T01:14:01;16.83;;;10.57;;
30458;SDS011;17254;50.976;7.034;2022-08-27T01:14:33;13.35;;;9.77;;
30458;SDS011;17254;50.976;7.034;2022-08-27T01:15:06;15.13;;;10.68;;
30458;SDS011;17254;50.976;7.034;2022-08-27T01:15:42;12.88;;;9.35;;
30458;SDS011;17254;50.976;7.034;2022-08-27T01:16:15;13.57;;;10.02;;
30458;SDS011;17254;50.976;7.034;2022-08-27T01:16:51;13.23;;;10.30;;
30458;SDS011;17254;50.976;7.034;2022-08-27T01:17:25;12.63;;;8.60;;
30458;SDS011;17254;50.976;7.034;2022-08-27T01:17:56;13.93;;;8.73;;
30458;SDS011;17254;50.976;7.034;2022-08-27T01:18:31;15.18;;;9.63;;
30458;SDS011;17254;50.976;7.034;2022-08-27T01:19:06;10.98;;;7.95;;
30458;SDS011;17254;50.976;7.034;2022-08-27T01:19:41;13.73;;;9.85;;
30458;SDS011;17254;50.976;7.034;2022-08-27T01:20:19;10.52;;;9.43;;
30458;SDS011;17254;50.976;7.034;2022-08-27T01:20:54;15.98;;;9.52;;
30458;SDS011;17254;50.976;7.034;2022-08-27T01:21:31;14.70;;;9.48;;
30458;SDS011;17254;50.976;7.034;2022-08-27T01:22:08;13.35;;;9.30;;
30458;SDS011;17254;50.976;7.034;2022-08-27T01:22:47;17.00;;;10.20;;
30458;SDS011;17254;50.976;7.034;2022-08-27T01:23:28;12.48;;;9.13;;
30458;SDS011;17254;50.976;7.034;2022-08-27T01:24:08;13.73;;;9.55;;
30458;SDS011;17254;50.976;7.034;2022-08-27T01:24:57;11.05;;;8.60;;
30458;SDS011;17254;50.976;7.034;2022-08-27T01:25:32;16.15;;;9.13;;
30458;SDS011;17254;50.976;7.034;2022-08-27T01:26:03;14.30;;;10.18;;
30458;SDS011;17254;50.976;7.034;2022-08-27T01:26:37;17.08;;;9.98;;
30458;SDS011;17254;50.976;7.034;2022-08-27T01:27:11;10.43;;;9.32;;
30458;SDS011;17254;50.976;7.034;2022-08-27T01:27:45;20.30;;;10.07;;
30458;SDS011;17254;50.976;7.034;2022-08-27T01:28:17;26.50;;;11.63;;
30458;SDS011;17254;50.976;7.034;2022-08-27T01:28:50;14.73;;;10.90;;
30458;SDS011;17254;50.976;7.034;2022-08-27T01:29:22;17.88;;;10.63;;
30458;SDS011;17254;50.976;7.034;2022-08-27T01:29:53;13.68;;;11.13;;
30458;SDS011;17254;50.976;7.034;2022-08-27T01:30:25;17.73;;;11.23;;
30458;SDS011;17254;50.976;7.034;2022-08-27T01:30:57;23.60;;;13.10;;
30458;SDS011;17254;50.976;7.034;2022-08-27T01:31:28;25.80;;;14.40;;
30458;SDS011;17254;50.976;7.034;2022-08-27T01:32:04;19.75;;;13.55;;
30458;SDS011;17254;50.976;7.034;2022-08-27T01:32:37;23.27;;;13.48;;
30458;SDS011;17254;50.976;7.034;2022-08-27T01:33:10;32.55;;;13.35;;
30458;SDS011;17254;50.976;7.034;2022-08-27T01:33:51;22.20;;;13.73;;
30458;SDS011;17254;50.976;7.034;2022-08-27T01:34:24;21.90;;;14.85;;
30458;SDS011;17254;50.976;7.034;2022-08-27T01:34:56;23.33;;;15.63;;
30458;SDS011;17254;50.976;7.034;2022-08-27T01:35:28;19.05;;;14.68;;
30458;SDS011;17254;50.976;7.034;2022-08-27T01:35:59;26.23;;;17.50;;
30458;SDS011;17254;50.976;7.034;2022-08-27T01:36:31;31.40;;;19.00;;
30458;SDS011;17254;50.976;7.034;2022-08-27T01:37:03;26.75;;;18.95;;
30458;SDS011;17254;50.976;7.034;2022-08-27T01:37:35;27.55;;;18.95;;
30458;SDS011;17254;50.976;7.034;2022-08-27T01:38:09;29.85;;;20.17;;
30458;SDS011;17254;50.976;7.034;2022-08-27T01:38:40;30.75;;;20.10;;
30458;SDS011;17254;50.976;7.034;2022-08-27T01:39:11;29.75;;;21.55;;
30458;SDS011;17254;50.976;7.034;2022-08-27T01:39:44;30.25;;;20.27;;
30458;SDS011;17254;50.976;7.034;2022-08-27T01:40:16;29.85;;;18.27;;
30458;SDS011;17254;50.976;7.034;2022-08-27T01:40:48;33.92;;;21.48;;
30458;SDS011;17254;50.976;7.034;2022-08-27T01:41:20;29.05;;;20.83;;
30458;SDS011;17254;50.976;7.034;2022-08-27T01:41:51;30.63;;;20.52;;
30458;SDS011;17254;50.976;7.034;2022-08-27T01:42:23;29.98;;;20.60;;
30458;SDS011;17254;50.976;7.034;2022-08-27T01:42:59;37.33;;;22.13;;
30458;SDS011;17254;50.976;7.034;2022-08-27T01:43:31;28.45;;;21.13;;
30458;SDS011;17254;50.976;7.034;2022-08-27T01:44:03;35.83;;;22.17;;
30458;SDS011;17254;50.976;7.034;2022-08-27T01:44:41;29.98;;;19.75;;
30458;SDS011;17254;50.976;7.034;2022-08-27T01:45:15;28.30;;;19.60;;
30458;SDS011;17254;50.976;7.034;2022-08-27T01:45:49;31.73;;;19.75;;
30458;SDS011;17254;50.976;7.034;2022-08-27T01:46:21;33.03;;;21.15;;
30458;SDS011;17254;50.976;7.034;2022-08-27T01:46:52;36.38;;;20.05;;
30458;SDS011;17254;50.976;7.034;2022-08-27T01:47:25;34.97;;;20.27;;
30458;SDS011;17254;50.976;7.034;2022-08-27T01:47:57;34.95;;;19.42;;
30458;SDS011;17254;50.976;7.034;2022-08-27T01:48:29;29.80;;;19.10;;
30458;SDS011;17254;50.976;7.034;2022-08-27T01:49:01;31.23;;;18.65;;
30458;SDS011;17254;50.976;7.034;2022-08-27T01:49:32;31.38;;;19.63;;
30458;SDS011;17254;50.976;7.034;2022-08-27T01:50:03;26.40;;;17.52;;
30458;SDS011;17254;50.976;7.034;2022-08-27T01:50:38;29.52;;;16.98;;
30458;SDS011;17254;50.976;7.034;2022-08-27T01:51:10;26.30;;;17.63;;
30458;SDS011;17254;50.976;7.034;2022-08-27T01:51:41;28.55;;;19.70;;
30458;SDS011;17254;50.976;7.034;2022-08-27T01:52:14;29.75;;;17.33;;
30458;SDS011;17254;50.976;7.034;2022-08-27T01:52:46;25.50;;;16.00;;
30458;SDS011;17254;50.976;7.034;2022-08-27T01:53:19;24.70;;;14.88;;
30458;SDS011;17254;50.976;7.034;2022-08-27T01:53:53;25.40;;;15.48;;
30458;SDS011;17254;50.976;7.034;2022-08-27T01:54:24;21.33;;;16.33;;
30458;SDS011;17254;50.976;7.034;2022-08-27T01:54:56;18.30;;;14.50;;
30458;SDS011;17254;50.976;7.034;2022-08-27T01:55:28;27.75;;;14.32;;
30458;SDS011;17254;50.976;7.034;2022-08-27T01:56:00;22.75;;;14.82;;
30458;SDS011;17254;50.976;7.034;2022-08-27T01:56:31;29.80;;;15.15;;
30458;SDS011;17254;50.976;7.034;2022-08-27T01:57:02;22.48;;;15.32;;
30458;SDS011;17254;50.976;7.034;2022-08-27T01:57:35;21.77;;;13.88;;
30458;SDS011;17254;50.976;7.034;2022-08-27T01:58:06;20.95;;;15.40;;
30458;SDS011;17254;50.976;7.034;2022-08-27T01:58:38;30.25;;;13.73;;
30458;SDS011;17254;50.976;7.034;2022-08-27T01:59:09;16.02;;;12.20;;
30458;SDS011;17254;50.976;7.034;2022-08-27T01:59:41;18.98;;;11.27;;
30458;SDS011;17254;50.976;7.034;2022-08-27T02:00:14;19.60;;;13.25;;
30458;SDS011;17254;50.976;7.034;2022-08-27T02:00:48;19.10;;;13.95;;
30458;SDS011;17254;50.976;7.034;2022-08-27T02:01:22;23.92;;;13.15;;
30458;SDS011;17254;50.976;7.034;2022-08-27T02:01:54;22.92;;;13.68;;
30458;SDS011;17254;50.976;7.034;2022-08-27T02:02:25;16.88;;;11.68;;
30458;SDS011;17254;50.976;7.034;2022-08-27T02:02:57;20.70;;;13.85;;
30458;SDS011;17254;50.976;7.034;2022-08-27T02:03:30;18.85;;;12.60;;
30458;SDS011;17254;50.976;7.034;2022-08-27T02:04:01;18.05;;;11.27;;
30458;SDS011;17254;50.976;7.034;2022-08-27T02:04:32;21.92;;;13.18;;
30458;SDS011;17254;50.976;7.034;2022-08-27T02:05:05;17.85;;;12.27;;
30458;SDS011;17254;50.976;7.034;2022-08-27T02:05:37;26.45;;;12.68;;
30458;SDS011;17254;50.976;7.034;2022-08-27T02:06:09;18.35;;;11.55;;
30458;SDS011;17254;50.976;7.034;2022-08-27T02:06:42;22.85;;;12.90;;
30458;SDS011;17254;50.976;7.034;2022-08-27T02:07:12;20.85;;;11.65;;
30458;SDS011;17254;50.976;7.034;2022-08-27T02:07:44;16.27;;;12.13;;
30458;SDS011;17254;50.976;7.034;2022-08-27T02:08:16;25.73;;;13.50;;
30458;SDS011;17254;50.976;7.034;2022-08-27T02:08:48;15.95;;;11.85;;
30458;SDS011;17254;50.976;7.034;2022-08-27T02:09:19;21.95;;;14.38;;
30458;SDS011;17254;50.976;7.034;2022-08-27T02:09:51;18.85;;;12.18;;
30458;SDS011;17254;50.976;7.034;2022-08-27T02:10:25;24.30;;;13.50;;
30458;SDS011;17254;50.976;7.034;2022-08-27T02:10:58;19.83;;;12.93;;
30458;SDS011;17254;50.976;7.034;2022-08-27T02:11:30;23.48;;;14.00;;
30458;SDS011;17254;50.976;7.034;2022-08-27T02:12:02;21.17;;;13.98;;
30458;SDS011;17254;50.976;7.034;2022-08-27T02:12:34;26.15;;;15.70;;
30458;SDS011;17254;50.976;7.034;2022-08-27T02:13:06;23.83;;;14.02;;
30458;SDS011;17254;50.976;7.034;2022-08-27T02:13:38;24.88;;;15.50;;
30458;SDS011;17254;50.976;7.034;2022-08-27T02:14:09;24.33;;;15.32;;
30458;SDS011;17254;50.976;7.034;2022-08-27T02:14:41;22.33;;;16.05;;
30458;SDS011;17254;50.976;7.034;2022-08-27T02:15:13;24.10;;;14.35;;
30458;SDS011;17254;50.976;7.034;2022-08-27T02:15:44;26.90;;;15.23;;
30458;SDS011;17254;50.976;7.034;2022-08-27T02:16:16;25.23;;;14.55;;
30458;SDS011;17254;50.976;7.034;2022-08-27T02:16:47;26.10;;;16.20;;
30458;SDS011;17254;50.976;7.034;2022-08-27T02:17:19;23.25;;;15.63;;
30458;SDS011;17254;50.976;7.034;2022-08-27T02:17:50;21.02;;;15.20;;
30458;SDS011;17254;50.976;7.034;2022-08-27T02:18:21;28.40;;;17.35;;
30458;SDS011;17254;50.976;7.034;2022-08-27T02:18:52;25.63;;;16.35;;
30458;SDS011;17254;50.976;7.034;2022-08-27T02:19:25;22.52;;;15.07;;
30458;SDS011;17254;50.976;7.034;2022-08-27T02:19:56;27.08;;;17.25;;
30458;SDS011;17254;50.976;7.034;2022-08-27T02:20:28;33.40;;;18.38;;
30458;SDS011;17254;50.976;7.034;2022-08-27T02:21:00;30.42;;;18.42;;
30458;SDS011;17254;50.976;7.034;2022-08-27T02:21:31;22.30;;;17.13;;
30458;SDS011;17254;50.976;7.034;2022-08-27T02:22:03;28.55;;;18.75;;
30458;SDS011;17254;50.976;7.034;2022-08-27T02:22:35;31.88;;;18.30;;
30458;SDS011;17254;50.976;7.034;2022-08-27T02:23:07;28.65;;;18.80;;
30458;SDS011;17254;50.976;7.034;2022-08-27T02:23:38;31.48;;;20.15;;
30458;SDS011;17254;50.976;7.034;2022-08-27T02:24:11;28.73;;;19.30;;
30458;SDS011;17254;50.976;7.034;2022-08-27T02:24:43;40.38;;;20.70;;
30458;SDS011;17254;50.976;7.034;2022-08-27T02:25:14;37.95;;;21.42;;
30458;SDS011;17254;50.976;7.034;2022-08-27T02:25:47;32.03;;;20.98;;
30458;SDS011;17254;50.976;7.034;2022-08-27T02:26:20;33.30;;;21.13;;
30458;SDS011;17254;50.976;7.034;2022-08-27T02:26:52;31.40;;;20.75;;
30458;SDS011;17254;50.976;7.034;2022-08-27T02:27:24;40.50;;;23.35;;
30458;SDS011;17254;50.976;7.034;2022-08-27T02:28:01;29.30;;;19.20;;
30458;SDS011;17254;50.976;7.034;2022-08-27T02:28:33;33.15;;;20.75;;
30458;SDS011;17254;50.976;7.034;2022-08-27T02:29:04;28.95;;;20.52;;
30458;SDS011;17254;50.976;7.034;2022-08-27T02:29:36;27.77;;;20.20;;
30458;SDS011;17254;50.976;7.034;2022-08-27T02:30:08;35.65;;;20.80;;
30458;SDS011;17254;50.976;7.034;2022-08-27T02:30:41;33.33;;;21.58;;
30458;SDS011;17254;50.976;7.034;2022-08-27T02:31:13;32.33;;;20.27;;
30458;SDS011;17254;50.976;7.034;2022-08-27T02:31:45;39.65;;;21.27;;
30458;SDS011;17254;50.976;7.034;2022-08-27T02:32:16;39.55;;;23.42;;
30458;SDS011;17254;50.976;7.034;2022-08-27T02:32:49;40.13;;;22.60;;
30458;SDS011;17254;50.976;7.034;2022-08-27T02:33:22;36.28;;;22.83;;
30458;SDS011;17254;50.976;7.034;2022-08-27T02:33:53;32.13;;;21.95;;
30458;SDS011;17254;50.976;7.034;2022-08-27T02:34:25;32.78;;;23.88;;
30458;SDS011;17254;50.976;7.034;2022-08-27T02:34:56;35.30;;;22.05;;
30458;SDS011;17254;50.976;7.034;2022-08-27T02:35:27;39.35;;;24.13;;
30458;SDS011;17254;50.976;7.034;2022-08-27T02:36:01;34.92;;;23.95;;
30458;SDS011;17254;50.976;7.034;2022-08-27T02:36:32;40.08;;;24.73;;
30458;SDS011;17254;50.976;7.034;2022-08-27T02:37:03;35.35;;;23.27;;
30458;SDS011;17254;50.976;7.034;2022-08-27T02:37:35;35.25;;;23.90;;
30458;SDS011;17254;50.976;7.034;2022-08-27T02:38:07;37.78;;;23.42;;
30458;SDS011;17254;50.976;7.034;2022-08-27T02:38:38;47.47;;;26.67;;
30458;SDS011;17254;50.976;7.034;2022-08-27T02:39:10;42.22;;;27.25;;
30458;SDS011;17254;50.976;7.034;2022-08-27T02:39:42;38.70;;;24.13;;
30458;SDS011;17254;50.976;7.034;2022-08-27T02:40:14;38.90;;;25.90;;
30458;SDS011;17254;50.976;7.034;2022-08-27T02:40:47;39.20;;;25.88;;
30458;SDS011;17254;50.976;7.034;2022-08-27T02:41:20;43.22;;;27.92;;
30458;SDS011;17254;50.976;7.034;2022-08-27T02:41:51;46.10;;;27.90;;
30458;SDS011;17254;50.976;7.034;2022-08-27T02:42:22;49.92;;;28.77;;
30458;SDS011;17254;50.976;7.034;2022-08-27T02:42:54;51.88;;;31.13;;
30458;SDS011;17254;50.976;7.034;2022-08-27T02:43:25;43.15;;;28.67;;
30458;SDS011;17254;50.976;7.034;2022-08-27T02:43:56;45.28;;;30.35;;
30458;SDS011;17254;50.976;7.034;2022-08-27T02:44:28;47.97;;;29.77;;
30458;SDS011;17254;50.976;7.034;2022-08-27T02:45:00;50.83;;;31.38;;
30458;SDS011;17254;50.976;7.034;2022-08-27T02:45:31;52.53;;;35.03;;
30458;SDS011;17254;50.976;7.034;2022-08-27T02:46:04;48.30;;;30.73;;
30458;SDS011;17254;50.976;7.034;2022-08-27T02:46:35;45.88;;;30.98;;
30458;SDS011;17254;50.976;7.034;2022-08-27T02:47:06;66.38;;;33.90;;
30458;SDS011;17254;50.976;7.034;2022-08-27T02:47:38;60.97;;;33.97;;
30458;SDS011;17254;50.976;7.034;2022-08-27T02:48:09;57.05;;;32.65;;
30458;SDS011;17254;50.976;7.034;2022-08-27T02:48:40;61.92;;;35.00;;
30458;SDS011;17254;50.976;7.034;2022-08-27T02:49:13;54.95;;;36.35;;
30458;SDS011;17254;50.976;7.034;2022-08-27T02:49:44;55.53;;;34.45;;
30458;SDS011;17254;50.976;7.034;2022-08-27T02:50:15;63.13;;;36.28;;
30458;SDS011;17254;50.976;7.034;2022-08-27T02:50:47;55.63;;;33.55;;
30458;SDS011;17254;50.976;7.034;2022-08-27T02:51:18;60.97;;;36.78;;
30458;SDS011;17254;50.976;7.034;2022-08-27T02:51:51;59.15;;;36.83;;
30458;SDS011;17254;50.976;7.034;2022-08-27T02:52:25;63.47;;;36.72;;
30458;SDS011;17254;50.976;7.034;2022-08-27T02:52:56;63.05;;;38.05;;
30458;SDS011;17254;50.976;7.034;2022-08-27T02:53:27;58.30;;;34.55;;
30458;SDS011;17254;50.976;7.034;2022-08-27T02:53:59;57.60;;;35.60;;
30458;SDS011;17254;50.976;7.034;2022-08-27T02:54:30;59.15;;;35.80;;
30458;SDS011;17254;50.976;7.034;2022-08-27T02:55:02;53.03;;;35.25;;
30458;SDS011;17254;50.976;7.034;2022-08-27T02:55:35;56.30;;;33.83;;
30458;SDS011;17254;50.976;7.034;2022-08-27T02:56:07;52.35;;;35.88;;
30458;SDS011;17254;50.976;7.034;2022-08-27T02:56:39;56.35;;;37.13;;
30458;SDS011;17254;50.976;7.034;2022-08-27T02:57:10;59.88;;;36.53;;
30458;SDS011;17254;50.976;7.034;2022-08-27T02:57:41;66.28;;;36.67;;
30458;SDS011;17254;50.976;7.034;2022-08-27T02:58:13;61.22;;;35.67;;
30458;SDS011;17254;50.976;7.034;2022-08-27T02:58:46;60.58;;;36.08;;
30458;SDS011;17254;50.976;7.034;2022-08-27T02:59:17;61.08;;;36.60;;
30458;SDS011;17254;50.976;7.034;2022-08-27T02:59:48;63.63;;;37.60;;
30458;SDS011;17254;50.976;7.034;2022-08-27T03:00:20;69.63;;;39.08;;
30458;SDS011;17254;50.976;7.034;2022-08-27T03:00:53;62.85;;;35.47;;
30458;SDS011;17254;50.976;7.034;2022-08-27T03:01:24;64.10;;;37.65;;
30458;SDS011;17254;50.976;7.034;2022-08-27T03:01:56;63.85;;;34.40;;
30458;SDS011;17254;50.976;7.034;2022-08-27T03:02:27;57.03;;;36.63;;
30458;SDS011;17254;50.976;7.034;2022-08-27T03:02:59;60.70;;;36.35;;
30458;SDS011;17254;50.976;7.034;2022-08-27T03:03:31;57.85;;;34.72;;
30458;SDS011;17254;50.976;7.034;2022-08-27T03:04:02;54.25;;;32.80;;
30458;SDS011;17254;50.976;7.034;2022-08-27T03:04:34;64.88;;;35.38;;
30458;SDS011;17254;50.976;7.034;2022-08-27T03:05:06;52.70;;;33.25;;
30458;SDS011;17254;50.976;7.034;2022-08-27T03:05:37;59.13;;;34.28;;
30458;SDS011;17254;50.976;7.034;2022-08-27T03:06:09;50.42;;;33.35;;
30458;SDS011;17254;50.976;7.034;2022-08-27T03:06:41;57.45;;;33.05;;
30458;SDS011;17254;50.976;7.034;2022-08-27T03:07:12;46.95;;;30.67;;
30458;SDS011;17254;50.976;7.034;2022-08-27T03:07:44;62.30;;;33.15;;
30458;SDS011;17254;50.976;7.034;2022-08-27T03:08:19;51.28;;;32.00;;
30458;SDS011;17254;50.976;7.034;2022-08-27T03:08:50;56.30;;;32.35;;
30458;SDS011;17254;50.976;7.034;2022-08-27T03:09:21;56.83;;;31.90;;
30458;SDS011;17254;50.976;7.034;2022-08-27T03:09:53;49.10;;;31.38;;
30458;SDS011;17254;50.976;7.034;2022-08-27T03:10:24;46.05;;;29.55;;
30458;SDS011;17254;50.976;7.034;2022-08-27T03:10:55;56.72;;;32.22;;
30458;SDS011;17254;50.976;7.034;2022-08-27T03:11:28;53.28;;;31.48;;